Time;durP1;ratioP1;P1;durP2;ratioP2;P2;SDS_P1;SDS_P2;PMS_P1;PMS_P2;Temp;Humidity;BMP_temperature;BMP_pressure;BME280_temperature;BME280_humidity;BME280_pressure;Samples;Min_cycle;Max_cycle;Signal;HPM_P1;HPM_P2
2022/02/11 00:04:58;;;;;;;11.27;4.78;;;;;;;-5.40;64.45;98987.22;5003070;28;19925;-89
2022/02/11 00:07:10;;;;;;;11.18;4.78;;;;;;;-5.35;64.10;98995.78;5017649;28;20027;-89
2022/02/11 00:09:36;;;;;;;8.75;4.97;;;;;;;-5.48;64.24;98990.00;5017589;28;20045;-86
2022/02/11 00:12:02;;;;;;;10.18;5.20;;;;;;;-5.46;64.32;98982.13;5011010;28;20420;-88
2022/02/11 00:14:32;;;;;;;10.15;5.05;;;;;;;-5.54;64.56;98992.72;5012313;28;20053;-86
2022/02/11 00:16:58;;;;;;;;;;;;;;;-5.79;65.10;98994.97;4979658;28;20034;-87
2022/02/11 00:19:24;;;;;;;9.05;4.97;;;;;;;-5.69;65.16;98988.66;4963180;28;19924;-88
2022/02/11 00:21:50;;;;;;;11.18;5.28;;;;;;;-5.61;65.08;98994.56;4995489;28;20489;-87
2022/02/11 00:24:16;;;;;;;9.38;5.25;;;;;;;-5.58;64.85;98987.59;4980730;28;20045;-88
2022/02/11 00:26:47;;;;;;;11.02;5.28;;;;;;;-5.63;64.70;98988.56;4997004;28;20050;-88
2022/02/11 00:35:09;;;;;;;10.32;5.20;;;;;;;-5.62;65.28;99000.69;4995002;28;20458;-86
2022/02/11 00:37:39;;;;;;;14.75;5.50;;;;;;;-5.51;65.10;98999.63;4993188;28;20422;-89
2022/02/11 00:46:06;;;;;;;11.00;5.65;;;;;;;-5.46;64.73;98982.13;4982212;28;20405;-89
2022/02/11 01:04:25;;;;;;;12.95;5.45;;;;;;;-5.63;64.78;98961.66;4994198;28;20049;-88
2022/02/11 01:06:51;;;;;;;11.32;5.72;;;;;;;-5.67;64.84;98957.41;4995196;28;20050;-88
2022/02/11 01:09:17;;;;;;;9.63;4.97;;;;;;;-5.72;65.08;98944.47;4993522;28;20100;-90
2022/02/11 01:11:50;;;;;;;13.98;5.68;;;;;;;-5.64;65.13;98953.00;4993669;28;20041;-87
2022/02/11 01:14:21;;;;;;;11.27;5.93;;;;;;;-5.61;65.08;98960.72;4994107;28;20046;-88
2022/02/11 01:16:55;;;;;;;11.90;5.57;;;;;;;-5.53;65.03;98951.91;4994587;28;20045;-89
2022/02/11 01:22:11;;;;;;;11.05;5.28;;;;;;;-5.65;64.93;98938.25;4994672;28;20073;-89
2022/02/11 01:27:44;;;;;;;11.45;5.75;;;;;;;-5.47;64.86;98959.59;4993990;28;20050;-88
2022/02/11 01:30:38;;;;;;;11.68;5.88;;;;;;;-5.45;64.69;98950.00;5009930;28;20409;-89
2022/02/11 01:44:09;;;;;;;8.50;5.20;;;;;;;-5.35;64.26;98937.63;4994273;28;20042;-86
2022/02/11 01:51:59;;;;;;;11.70;5.90;;;;;;;-5.40;64.20;98945.56;4994508;28;20073;-87
2022/02/11 02:10:39;;;;;;;9.25;5.35;;;;;;;-5.39;64.97;98942.03;4993954;28;20065;-88
2022/02/11 02:15:48;;;;;;;14.57;6.38;;;;;;;-5.49;65.04;98946.63;4996395;28;20046;-88
2022/02/11 02:39:35;;;;;;;11.52;5.95;;;;;;;-5.51;64.82;98916.28;4998133;28;20057;-89
2022/02/11 02:50:35;;;;;;;13.15;6.13;;;;;;;-5.59;64.55;98910.38;4996599;28;20413;-89
2022/02/11 02:58:32;;;;;;;8.88;5.55;;;;;;;-5.68;64.69;98895.81;4985399;28;20050;-86
2022/02/11 04:55:26;;;;;;;11.25;5.88;;;;;;;-5.12;64.73;98886.69;4921334;29;20076;-83
2022/02/11 05:00:40;;;;;;;13.32;5.40;;;;;;;-4.80;64.40;98885.06;4938840;29;20443;-86
2022/02/11 05:03:06;;;;;;;12.85;6.30;;;;;;;-4.69;63.93;98877.81;4939064;29;20043;-83
2022/02/11 05:05:48;;;;;;;10.75;5.57;;;;;;;-4.66;62.90;98877.72;4957732;29;20090;-80
2022/02/11 05:08:22;;;;;;;12.50;6.38;;;;;;;-4.52;63.41;98868.69;4984124;28;20093;-81
2022/02/11 05:10:49;;;;;;;12.27;6.07;;;;;;;-4.44;63.18;98866.72;4958212;28;20043;-81
2022/02/11 05:13:16;;;;;;;11.93;6.85;;;;;;;-4.28;62.97;98862.81;4975870;28;20046;-80
2022/02/11 05:15:42;;;;;;;20.98;6.65;;;;;;;-4.33;62.47;98854.22;4959528;28;20038;-82
2022/02/11 05:18:08;;;;;;;12.30;5.50;;;;;;;-4.37;62.23;98852.59;4992417;28;20051;-83
2022/02/11 05:20:35;;;;;;;11.43;5.47;;;;;;;-4.26;61.95;98842.72;4967817;28;20053;-86
2022/02/11 05:23:06;;;;;;;9.75;5.70;;;;;;;-4.20;61.57;98850.41;4978283;28;20050;-89
2022/02/11 05:25:33;;;;;;;14.60;6.43;;;;;;;-4.27;61.68;98867.13;4964166;28;20046;-88
2022/02/11 05:27:59;;;;;;;11.98;6.00;;;;;;;-4.16;62.22;98866.81;4928344;28;20454;-89
2022/02/11 05:30:25;;;;;;;12.25;6.57;;;;;;;-4.23;62.23;98860.91;4944520;28;20435;-90
2022/02/11 05:32:51;;;;;;;9.52;5.60;;;;;;;-4.33;61.99;98864.66;4927240;28;20057;-86
2022/02/11 05:35:17;;;;;;;10.23;5.45;;;;;;;-4.17;62.21;98860.75;4941928;28;20454;-85
2022/02/11 05:37:43;;;;;;;11.57;6.00;;;;;;;-3.81;61.89;98863.19;4957848;28;20133;-82
2022/02/11 05:40:10;;;;;;;10.70;6.55;;;;;;;-3.81;61.45;98857.09;4957603;28;20085;-86
2022/02/11 05:42:36;;;;;;;11.65;5.43;;;;;;;-3.66;60.64;98873.16;4974074;28;20038;-81
2022/02/11 05:45:03;;;;;;;10.40;6.43;;;;;;;-3.62;60.50;98858.25;4977490;28;20181;-83
2022/02/11 05:47:29;;;;;;;10.45;5.88;;;;;;;-3.53;60.34;98855.38;4976781;28;20059;-82
2022/02/11 05:49:55;;;;;;;11.15;6.20;;;;;;;-3.39;60.29;98865.38;4956404;28;20047;-84
2022/02/11 05:52:21;;;;;;;13.00;6.25;;;;;;;-3.32;60.02;98861.69;4941560;28;20050;-84
2022/02/11 05:54:47;;;;;;;7.28;4.72;;;;;;;-3.54;59.38;98871.09;4930696;28;20043;-83
2022/02/11 05:57:13;;;;;;;15.50;7.40;;;;;;;-3.83;59.80;98874.59;4944119;28;20046;-80
2022/02/11 05:59:39;;;;;;;10.20;5.60;;;;;;;-3.68;59.96;98880.22;4974801;28;20066;-80
2022/02/11 06:02:05;;;;;;;12.43;6.68;;;;;;;-3.64;59.31;98874.91;4940429;28;20019;-89
2022/02/11 06:04:31;;;;;;;15.95;6.57;;;;;;;-3.50;59.34;98880.53;4965414;28;20039;-82
2022/02/11 06:06:59;;;;;;;10.75;6.70;;;;;;;-3.42;59.21;98862.88;4992671;28;20054;-81
2022/02/11 06:09:25;;;;;;;9.05;5.65;;;;;;;-3.39;58.77;98865.38;4976448;28;20114;-83
2022/02/11 06:11:51;;;;;;;13.50;6.10;;;;;;;-3.37;58.62;98871.44;4962508;28;20047;-84
2022/02/11 06:14:18;;;;;;;14.48;6.60;;;;;;;-3.47;58.54;98876.06;4976277;28;20042;-86
2022/02/11 06:16:44;;;;;;;12.95;6.30;;;;;;;-3.37;58.26;98860.97;4943056;28;20138;-85
2022/02/11 06:19:10;;;;;;;11.93;6.05;;;;;;;-3.34;57.54;98862.66;4941924;28;20536;-86
2022/02/11 06:21:37;;;;;;;13.25;6.43;;;;;;;-3.47;58.02;98868.25;4958416;28;20388;-89
2022/02/11 06:24:03;;;;;;;10.50;6.03;;;;;;;-3.46;57.56;98864.75;4975579;28;20046;-85
2022/02/11 06:26:31;;;;;;;10.35;5.53;;;;;;;-3.43;58.11;98858.53;4975129;28;20130;-85
2022/02/11 06:28:57;;;;;;;11.10;5.60;;;;;;;-3.24;57.96;98862.28;4982026;28;20410;-87
2022/02/11 06:31:23;;;;;;;11.93;5.75;;;;;;;-3.35;57.12;98867.00;4942827;28;20046;-86
2022/02/11 06:33:50;;;;;;;11.35;5.65;;;;;;;-3.29;57.52;98877.25;4957295;28;20049;-85
2022/02/11 06:36:16;;;;;;;21.88;6.72;;;;;;;-3.44;57.62;98867.28;4972825;28;20053;-84
2022/02/11 06:38:42;;;;;;;10.95;5.95;;;;;;;-3.28;57.96;98868.50;4956596;28;20401;-86
2022/02/11 06:41:07;;;;;;;11.05;6.20;;;;;;;-3.05;57.16;98864.31;4956679;28;20130;-84
2022/02/11 06:43:33;;;;;;;12.48;6.78;;;;;;;-2.89;57.12;98864.69;4973955;28;20145;-85
2022/02/11 06:46:01;;;;;;;11.82;6.43;;;;;;;-2.83;56.51;98865.31;4972580;28;20054;-86
2022/02/11 06:48:27;;;;;;;9.40;6.10;;;;;;;-2.57;55.87;98863.56;4955519;28;20100;-84
2022/02/11 06:50:54;;;;;;;9.32;5.80;;;;;;;-2.65;55.01;98871.69;4939208;28;20047;-81
2022/02/11 06:53:20;;;;;;;13.38;6.00;;;;;;;-3.15;55.41;98868.16;4940743;28;20051;-79
2022/02/11 06:55:46;;;;;;;10.73;6.13;;;;;;;-3.10;56.48;98868.84;4941182;28;20081;-80
2022/02/11 06:58:12;;;;;;;12.88;6.20;;;;;;;-2.82;56.75;98869.66;4956780;28;20047;-84
2022/02/11 07:00:39;;;;;;;12.27;6.40;;;;;;;-2.55;56.73;98870.47;4909091;28;20076;-80
2022/02/11 07:03:05;;;;;;;13.32;6.40;;;;;;;-2.66;54.93;98871.75;4942069;28;20073;-81
2022/02/11 07:05:33;;;;;;;13.90;7.18;;;;;;;-2.73;55.51;98852.78;4912473;28;20050;-82
2022/02/11 07:08:00;;;;;;;11.23;6.30;;;;;;;-2.56;55.51;98871.34;4960294;28;20085;-87
2022/02/11 07:10:26;;;;;;;14.65;7.95;;;;;;;-2.45;55.97;98878.84;4959656;28;20082;-81
2022/02/11 07:12:51;;;;;;;16.42;7.70;;;;;;;-2.60;55.76;98882.84;4959854;28;20097;-79
2022/02/11 07:15:18;;;;;;;16.27;8.70;;;;;;;-2.59;55.24;98874.09;4943907;28;20498;-82
2022/02/11 07:17:44;;;;;;;17.52;9.88;;;;;;;-2.66;55.36;98874.38;4959854;28;20045;-78
2022/02/11 07:20:11;;;;;;;22.73;10.18;;;;;;;-2.79;55.24;98879.13;4959514;28;20061;-79
2022/02/11 07:22:41;;;;;;;23.58;10.73;;;;;;;-2.94;56.13;98883.13;4959772;28;20049;-80
2022/02/11 07:25:10;;;;;;;;;;;;;;;-2.88;56.01;98882.94;4960345;28;20092;-80
2022/02/11 07:27:37;;;;;;;41.42;11.45;;;;;;;-2.85;56.36;98881.97;4928841;28;19929;-81
2022/02/11 07:30:04;;;;;;;23.42;10.35;;;;;;;-2.81;56.33;98868.75;4976819;28;20073;-85
2022/02/11 07:32:30;;;;;;;21.55;10.93;;;;;;;-2.66;56.56;98874.38;4959808;28;20267;-89
2022/02/11 07:35:14;;;;;;;29.95;10.95;;;;;;;-2.64;56.20;98875.16;4947441;28;20058;-92
2022/02/11 07:37:40;;;;;;;24.60;12.20;;;;;;;-2.58;56.01;98861.88;4950948;28;20046;-87
2022/02/11 07:40:07;;;;;;;23.65;11.57;;;;;;;-2.16;56.07;98874.34;4975755;28;20510;-83
2022/02/11 07:42:33;;;;;;;18.80;10.57;;;;;;;-2.16;54.95;98861.25;4974851;28;20049;-80
2022/02/11 07:44:59;;;;;;;28.20;11.10;;;;;;;-2.10;55.03;98843.56;4975301;28;20150;-86
2022/02/11 07:47:27;;;;;;;20.02;9.57;;;;;;;-1.93;55.10;98855.19;4943698;28;20061;-85
2022/02/11 07:49:54;;;;;;;24.23;12.40;;;;;;;-1.89;54.68;98864.63;4975601;28;20062;-90
2022/02/11 07:52:20;;;;;;;19.90;9.95;;;;;;;-1.77;54.70;98859.81;4927409;28;20581;-85
2022/02/11 07:54:46;;;;;;;19.33;9.15;;;;;;;-1.51;54.01;98871.88;4959628;28;20054;-87
2022/02/11 07:57:13;;;;;;;18.25;9.73;;;;;;;-1.48;54.09;98860.44;4939781;29;20395;-85
2022/02/11 07:59:39;;;;;;;21.67;10.23;;;;;;;-1.55;53.65;98861.59;4955813;29;20138;-87
2022/02/11 08:02:05;;;;;;;17.35;9.38;;;;;;;-1.64;53.96;98856.72;4957213;28;20047;-85
2022/02/11 08:04:32;;;;;;;20.45;10.00;;;;;;;-1.55;53.29;98858.97;4956146;29;20138;-85
2022/02/11 08:06:58;;;;;;;18.20;8.70;;;;;;;-1.61;53.48;98851.34;4942249;28;20043;-87
2022/02/11 08:09:24;;;;;;;15.27;8.75;;;;;;;-1.57;53.28;98858.19;4959941;28;20499;-86
2022/02/11 08:11:50;;;;;;;17.50;8.75;;;;;;;-1.52;53.47;98858.84;4975493;28;20074;-82
2022/02/11 08:14:16;;;;;;;18.67;9.40;;;;;;;-1.61;53.51;98861.84;4975312;28;20565;-82
2022/02/11 08:16:43;;;;;;;14.32;8.77;;;;;;;-1.49;53.62;98869.22;4959382;28;20074;-82
2022/02/11 08:19:09;;;;;;;21.13;9.48;;;;;;;-1.51;53.20;98855.31;4976079;28;20047;-82
2022/02/11 08:21:35;;;;;;;16.50;8.15;;;;;;;-1.54;53.13;98868.56;4958189;28;20075;-86
2022/02/11 08:24:01;;;;;;;13.18;8.02;;;;;;;-1.55;53.59;98866.81;4959706;28;20100;-88
2022/02/11 08:26:29;;;;;;;13.50;7.85;;;;;;;-1.49;53.55;98854.34;4975379;28;20509;-84
2022/02/11 08:28:56;;;;;;;16.95;8.55;;;;;;;-1.39;52.60;98849.59;4942732;28;20086;-85
2022/02/11 08:31:22;;;;;;;14.65;7.82;;;;;;;-1.47;52.79;98859.50;4958247;28;20137;-86
2022/02/11 08:33:50;;;;;;;14.35;7.82;;;;;;;-1.56;53.58;98852.03;4958567;28;20546;-82
2022/02/11 08:36:16;;;;;;;21.17;7.30;;;;;;;-1.34;53.56;98852.88;4954905;28;20051;-86
2022/02/11 08:38:42;;;;;;;14.65;7.38;;;;;;;-1.32;52.41;98844.94;4923763;29;20422;-87
2022/02/11 08:41:08;;;;;;;19.42;8.20;;;;;;;-1.38;52.69;98835.56;4954492;28;20055;-83
2022/02/11 08:43:34;;;;;;;13.15;7.05;;;;;;;-1.45;53.31;98839.34;4957358;29;20059;-84
2022/02/11 08:46:00;;;;;;;15.93;7.35;;;;;;;-1.30;53.41;98845.75;4907182;29;20146;-85
2022/02/11 08:48:26;;;;;;;11.48;6.88;;;;;;;-1.14;52.54;98832.88;4907814;29;20053;-85
2022/02/11 08:50:52;;;;;;;17.27;7.07;;;;;;;-1.23;52.77;98834.09;4924332;29;20057;-86
2022/02/11 08:53:22;;;;;;;11.45;6.43;;;;;;;-1.47;52.90;98828.94;4956560;29;20070;-85
2022/02/11 08:55:49;;;;;;;11.10;6.70;;;;;;;-1.40;52.62;98831.28;4927059;29;20091;-85
2022/02/11 08:58:19;;;;;;;14.05;7.00;;;;;;;-1.59;52.87;98831.16;4938130;28;20048;-84
2022/02/11 09:00:47;;;;;;;12.70;7.05;;;;;;;-1.48;53.31;98835.06;4922852;29;20130;-82
2022/02/11 09:03:14;;;;;;;18.23;7.87;;;;;;;-1.32;53.22;98837.94;4925057;29;20495;-83
2022/02/11 09:05:40;;;;;;;20.40;6.38;;;;;;;-1.67;53.22;98849.81;4923662;29;20133;-83
2022/02/11 09:08:06;;;;;;;12.10;7.53;;;;;;;-1.53;53.55;98847.50;4907261;29;20134;-85
2022/02/11 09:10:32;;;;;;;14.10;7.72;;;;;;;-1.56;53.50;98852.03;4923120;29;20473;-81
2022/02/11 09:13:00;;;;;;;26.00;9.68;;;;;;;-1.53;54.13;98851.91;4932904;29;20039;-90
2022/02/11 09:15:27;;;;;;;17.48;8.40;;;;;;;-1.30;54.25;98843.97;4953057;29;20047;-82
2022/02/11 09:17:53;;;;;;;22.30;10.95;;;;;;;-1.28;52.93;98857.91;4972741;28;20047;-82
2022/02/11 09:20:19;;;;;;;24.10;11.50;;;;;;;-1.33;53.58;98840.63;4935665;29;20043;-88
2022/02/11 09:22:45;;;;;;;22.80;11.85;;;;;;;-1.14;52.91;98832.88;4938848;29;20043;-84
2022/02/11 09:25:11;;;;;;;18.63;9.57;;;;;;;-0.94;53.17;98834.66;4949525;28;20400;-84
2022/02/11 09:27:43;;;;;;;24.90;11.35;;;;;;;-0.81;53.33;98826.22;4943093;29;20035;-91
2022/02/11 09:30:11;;;;;;;24.92;11.68;;;;;;;-0.76;52.30;98833.91;4961077;29;20047;-90
2022/02/11 09:32:37;;;;;;;35.90;13.15;;;;;;;-0.70;52.18;98832.81;4987754;28;20054;-90
2022/02/11 09:35:03;;;;;;;30.50;13.35;;;;;;;-0.76;52.15;98826.88;4963016;28;20043;-90
2022/02/11 09:37:30;;;;;;;29.35;12.93;;;;;;;-0.67;52.39;98828.28;4960461;28;20058;-88
2022/02/11 09:39:56;;;;;;;30.85;13.35;;;;;;;-0.66;52.30;98850.13;4941487;29;20055;-82
2022/02/11 09:42:22;;;;;;;44.13;17.63;;;;;;;-0.91;52.36;98845.91;4956031;28;20047;-93
2022/02/11 09:44:48;;;;;;;40.95;15.98;;;;;;;-0.95;52.88;98840.84;4926486;28;20078;-92
2022/02/11 09:47:14;;;;;;;40.13;18.48;;;;;;;-0.88;52.92;98839.69;4959399;28;20108;-91
2022/02/11 09:49:40;;;;;;;44.13;16.65;;;;;;;-1.10;53.30;98831.84;4958712;28;20042;-93
2022/02/11 09:52:06;;;;;;;37.13;15.05;;;;;;;-0.82;52.95;98845.53;4927434;28;20138;-88
2022/02/11 09:54:32;;;;;;;45.72;17.25;;;;;;;-0.55;52.74;98840.88;4974093;28;20130;-89
2022/02/11 09:56:59;;;;;;;40.70;16.27;;;;;;;-0.75;52.65;98831.22;4958144;28;20487;-89
2022/02/11 09:59:25;;;;;;;51.60;19.27;;;;;;;-0.78;52.62;98841.84;4942079;28;20043;-90
2022/02/11 10:01:51;;;;;;;49.47;18.48;;;;;;;-0.90;52.52;98846.75;4957422;28;20066;-86
2022/02/11 10:04:18;;;;;;;57.50;18.83;;;;;;;-1.19;52.85;98845.34;4973260;28;20105;-84
2022/02/11 10:06:48;;;;;;;51.40;20.35;;;;;;;-1.39;53.63;98848.72;4942122;28;20078;-88
2022/02/11 10:09:17;;;;;;;45.50;19.48;;;;;;;-1.62;54.28;98847.84;4942395;28;20112;-84
2022/02/11 10:11:44;;;;;;;59.95;20.17;;;;;;;-1.59;54.68;98855.59;4926186;28;20077;-87
2022/02/11 10:14:19;;;;;;;49.53;19.30;;;;;;;-1.67;54.69;98854.19;4950701;28;20111;-85
2022/02/11 10:16:56;;;;;;;53.85;21.23;;;;;;;-1.55;54.96;98854.56;4985842;28;20042;-92
2022/02/11 10:19:55;;;;;;;51.47;20.73;;;;;;;-1.68;55.15;98847.25;4967104;28;20035;-92
2022/02/11 10:22:26;;;;;;;48.72;20.63;;;;;;;-1.96;55.09;98861.38;4968414;28;20035;-89
2022/02/11 10:24:54;;;;;;;35.45;17.60;;;;;;;-1.99;55.54;98853.66;4969856;28;20106;-90
2022/02/11 10:27:26;;;;;;;52.55;20.05;;;;;;;-1.95;55.59;98852.63;4972707;28;20050;-92
2022/02/11 10:29:56;;;;;;;37.30;15.95;;;;;;;-1.98;55.09;98856.22;4971656;28;20186;-95
2022/02/11 10:32:43;;;;;;;36.13;15.18;;;;;;;-2.13;55.55;98850.69;4928342;28;20047;-93
2022/02/11 10:35:12;;;;;;;31.30;14.60;;;;;;;-2.03;55.47;98852.91;4959958;28;20535;-93
2022/02/11 10:38:04;;;;;;;34.63;15.95;;;;;;;-1.98;55.81;98848.34;4960513;28;20590;-94
2022/02/11 10:40:31;;;;;;;33.38;14.15;;;;;;;-1.94;55.87;98861.34;4987566;28;20466;-92
2022/02/11 10:42:57;;;;;;;36.45;15.82;;;;;;;-1.92;55.49;98849.88;4964144;28;20049;-93
2022/02/11 10:45:31;;;;;;;36.58;15.32;;;;;;;-1.84;55.56;98860.06;4947570;28;20055;-87
2022/02/11 10:48:15;;;;;;;36.50;12.95;;;;;;;-1.71;54.95;98863.94;4976856;28;20499;-92
2022/02/11 10:50:57;;;;;;;27.33;12.23;;;;;;;-1.93;55.54;98863.88;4947975;28;20043;-88
2022/02/11 10:53:30;;;;;;;30.30;10.98;;;;;;;-2.01;55.37;98865.94;4947295;28;20089;-89
2022/02/11 10:55:58;;;;;;;25.83;11.45;;;;;;;-1.97;55.20;98857.06;4949077;28;20053;-90
2022/02/11 10:58:27;;;;;;;27.58;11.38;;;;;;;-1.94;55.46;98864.81;4929050;28;20061;-90
2022/02/11 11:00:55;;;;;;;25.08;10.38;;;;;;;-1.90;55.33;98869.03;4943423;28;20043;-89
2022/02/11 11:03:21;;;;;;;26.95;10.60;;;;;;;-1.96;55.56;98867.50;4945803;28;20050;-89
2022/02/11 11:05:47;;;;;;;21.35;9.25;;;;;;;-2.06;55.39;98865.25;4931137;28;20074;-92
2022/02/11 11:08:14;;;;;;;21.38;9.63;;;;;;;-1.97;55.16;98859.69;4985589;28;20034;-92
2022/02/11 11:10:42;;;;;;;16.83;9.27;;;;;;;-1.79;55.23;98856.38;4954674;29;20059;-94
2022/02/11 11:13:17;;;;;;;19.42;9.20;;;;;;;-1.71;54.66;98864.78;4953208;29;20047;-89
2022/02/11 11:15:43;;;;;;;21.48;8.60;;;;;;;-1.76;54.42;98845.78;4946117;29;20043;-89
2022/02/11 11:18:10;;;;;;;18.85;9.23;;;;;;;-1.60;54.55;98858.28;4955767;29;20051;-90
2022/02/11 11:20:40;;;;;;;18.58;9.27;;;;;;;-1.58;54.66;98869.56;4928841;29;20106;-90
2022/02/11 11:23:18;;;;;;;24.75;8.85;;;;;;;-1.56;54.26;98873.00;4926462;29;20078;-91
2022/02/11 11:26:06;;;;;;;25.30;10.35;;;;;;;-1.48;54.96;98865.69;4913520;29;20047;-86
2022/02/11 11:28:52;;;;;;;18.23;9.45;;;;;;;-1.49;54.39;98863.97;4911600;29;20039;-91
2022/02/11 11:31:26;;;;;;;17.65;8.57;;;;;;;-1.58;54.42;98870.44;4910326;29;20039;-89
2022/02/11 11:33:53;;;;;;;19.80;9.50;;;;;;;-1.77;54.98;98864.16;4929364;28;20097;-94
2022/02/11 11:36:20;;;;;;;22.80;9.90;;;;;;;-1.74;55.36;98870.16;4960021;28;20049;-90
2022/02/11 11:38:50;;;;;;;17.20;9.05;;;;;;;-1.79;55.59;98876.47;4912691;28;20046;-90
2022/02/11 11:41:21;;;;;;;14.52;8.15;;;;;;;-1.81;54.87;98883.53;4930868;28;20043;-93
2022/02/11 11:43:59;;;;;;;22.10;9.90;;;;;;;-1.94;55.30;98883.13;4966747;28;20073;-87
2022/02/11 11:46:28;;;;;;;19.17;9.10;;;;;;;-2.25;55.95;98878.16;4928685;28;20050;-89
2022/02/11 11:49:10;;;;;;;22.20;9.30;;;;;;;-2.45;57.01;98877.06;4975736;28;20574;-90
2022/02/11 11:51:36;;;;;;;23.58;9.60;;;;;;;-2.47;56.88;98883.28;4961256;28;20050;-86
2022/02/11 11:54:18;;;;;;;23.35;9.48;;;;;;;-2.57;57.50;98879.28;4959462;28;20066;-89
2022/02/11 11:56:53;;;;;;;22.83;9.27;;;;;;;-2.71;57.55;98878.00;4958843;28;20058;-88
2022/02/11 11:59:29;;;;;;;25.13;9.90;;;;;;;-2.87;58.31;98874.16;4979695;28;20121;-87
2022/02/11 12:02:00;;;;;;;18.67;8.85;;;;;;;-2.92;58.17;98881.31;4949906;28;20146;-88
2022/02/11 12:04:33;;;;;;;23.05;10.02;;;;;;;-3.04;59.19;98881.72;4963048;28;20486;-90
2022/02/11 12:07:03;;;;;;;24.80;9.93;;;;;;;-3.09;58.88;98878.38;4944490;28;20065;-89
2022/02/11 12:09:29;;;;;;;;;;;;;;;-3.15;59.37;98881.22;4964596;28;20108;-85
2022/02/11 12:11:57;;;;;;;19.05;9.20;;;;;;;-3.26;59.88;98871.09;4961312;28;19954;-88
2022/02/11 12:14:25;;;;;;;24.55;10.93;;;;;;;-3.24;59.92;98883.19;4947660;28;20042;-87
2022/02/11 12:16:53;;;;;;;31.00;13.07;;;;;;;-3.18;59.56;98877.78;4943834;28;20101;-88
2022/02/11 12:19:19;;;;;;;35.33;13.80;;;;;;;-3.13;59.84;98882.00;4944076;28;20045;-87
2022/02/11 12:21:45;;;;;;;29.05;12.25;;;;;;;-3.09;59.79;98878.38;4976598;28;20054;-88
2022/02/11 12:29:51;;;;;;;32.97;14.52;;;;;;;-3.29;60.18;98892.94;4964697;28;20398;-94
2022/02/11 12:32:19;;;;;;;44.22;18.58;;;;;;;-3.36;60.50;98880.97;4952968;28;20411;-93
2022/02/11 12:35:00;;;;;;;45.92;18.73;;;;;;;-3.40;60.82;98876.75;4949336;28;20135;-92
2022/02/11 12:37:27;;;;;;;54.10;21.15;;;;;;;-3.32;60.85;98893.03;4940226;28;20053;-90
2022/02/11 12:40:27;;;;;;;56.60;24.10;;;;;;;-3.47;60.99;98888.28;4984229;28;20077;-90
2022/02/11 12:43:04;;;;;;;63.65;26.90;;;;;;;-3.49;61.48;98890.09;4953115;28;20043;-90
2022/02/11 12:45:32;;;;;;;68.95;29.35;;;;;;;-3.51;61.44;98891.91;4934502;28;20046;-88
2022/02/11 12:47:59;;;;;;;64.50;27.00;;;;;;;-3.69;61.92;98888.06;4948757;28;20061;-91
2022/02/11 12:50:28;;;;;;;77.28;30.23;;;;;;;-3.62;62.08;98887.00;4974239;28;20058;-90
2022/02/11 12:52:56;;;;;;;69.10;29.00;;;;;;;-3.60;62.34;98887.81;4982493;28;20046;-89
2022/02/11 12:55:22;;;;;;;80.70;33.65;;;;;;;-3.66;61.92;98894.06;4970442;28;20051;-91
2022/02/11 12:57:50;;;;;;;82.32;33.75;;;;;;;-3.71;62.55;98879.44;4970114;28;20043;-91
2022/02/11 13:00:20;;;;;;;86.18;36.60;;;;;;;-3.73;62.36;98892.53;4943863;28;20042;-88
2022/02/11 13:02:50;;;;;;;90.45;34.30;;;;;;;-3.78;62.80;98902.25;4988094;28;20049;-89
2022/02/11 13:05:20;;;;;;;85.50;34.22;;;;;;;-3.83;63.08;98896.34;4977705;28;20042;-89
2022/02/11 13:07:47;;;;;;;76.57;32.83;;;;;;;-3.85;63.56;98898.13;4981151;28;20057;-90
2022/02/11 13:10:37;;;;;;;73.63;33.45;;;;;;;-3.87;63.36;98889.50;4969405;28;20042;-87
2022/02/11 13:13:14;;;;;;;85.65;33.90;;;;;;;-3.77;63.49;98897.91;4960495;28;20046;-91
2022/02/11 13:15:44;;;;;;;84.22;35.63;;;;;;;-3.85;63.39;98908.56;4953943;28;20051;-89
2022/02/11 13:18:21;;;;;;;78.55;31.88;;;;;;;-3.92;63.83;98907.03;4985027;28;20050;-93
2022/02/11 13:21:14;;;;;;;92.57;34.35;;;;;;;-3.92;63.95;98907.03;4974708;28;20503;-86
2022/02/11 13:23:43;;;;;;;80.75;31.88;;;;;;;-3.98;63.54;98904.59;4974567;28;20051;-89
2022/02/11 13:26:12;;;;;;;68.15;28.65;;;;;;;-3.96;63.54;98897.56;4948330;28;20062;-85
2022/02/11 13:28:45;;;;;;;70.60;29.17;;;;;;;-3.94;64.56;98908.84;4923386;29;20406;-82
2022/02/11 13:31:11;;;;;;;72.70;29.08;;;;;;;-3.88;63.90;98908.66;4940237;29;20050;-82
2022/02/11 13:33:37;;;;;;;69.28;28.63;;;;;;;-4.05;63.98;98900.47;4956395;28;20054;-83
2022/02/11 13:36:08;;;;;;;68.22;28.20;;;;;;;-4.06;64.29;98896.09;4941506;29;20047;-83
2022/02/11 13:38:48;;;;;;;66.07;27.23;;;;;;;-4.02;64.40;98901.22;4925769;29;20454;-88
2022/02/11 13:41:15;;;;;;;62.15;26.38;;;;;;;-3.98;64.56;98907.22;4938503;29;20410;-85
2022/02/11 13:43:49;;;;;;;72.00;26.00;;;;;;;-4.00;64.42;98925.50;4938959;29;20102;-83
2022/02/11 13:46:29;;;;;;;56.53;24.10;;;;;;;-4.01;64.53;98912.53;4923945;29;20097;-95
2022/02/11 13:49:08;;;;;;;56.63;23.58;;;;;;;-4.03;65.00;98904.72;4941569;29;20047;-81
2022/02/11 13:51:34;;;;;;;55.13;23.38;;;;;;;-3.96;64.64;98919.31;4954437;28;20074;-83
2022/02/11 13:54:12;;;;;;;59.67;22.73;;;;;;;-3.92;64.67;98918.31;4956896;29;20046;-82
2022/02/11 13:56:48;;;;;;;49.70;20.58;;;;;;;-4.11;65.04;98921.50;4937983;29;20054;-87
2022/02/11 13:59:32;;;;;;;49.83;20.00;;;;;;;-4.08;64.87;98908.38;4923068;29;20051;-85
2022/02/11 14:02:10;;;;;;;44.60;18.80;;;;;;;-3.94;64.70;98924.50;4970233;28;20050;-91
2022/02/11 14:04:36;;;;;;;58.92;20.23;;;;;;;-4.03;65.05;98924.75;4957701;29;20495;-91
2022/02/11 14:07:03;;;;;;;49.63;21.60;;;;;;;-4.09;65.28;98919.72;4947355;29;20058;-94
2022/02/11 14:09:35;;;;;;;46.28;20.83;;;;;;;-3.99;65.17;98923.75;4948027;29;20043;-94
2022/02/11 14:12:05;;;;;;;44.97;19.25;;;;;;;-3.95;65.03;98914.94;4941933;29;20044;-86
2022/02/11 14:14:34;;;;;;;41.00;18.85;;;;;;;-3.92;64.66;98912.25;4940648;29;20047;-86
2022/02/11 14:17:01;;;;;;;51.45;19.55;;;;;;;-3.97;64.95;98919.38;4969105;28;20038;-89
2022/02/11 14:19:27;;;;;;;47.25;17.98;;;;;;;-4.00;64.96;98909.00;4942438;28;20054;-92
2022/02/11 14:21:55;;;;;;;43.75;18.70;;;;;;;-4.06;65.09;98919.59;4973689;28;20521;-85
2022/02/11 14:24:22;;;;;;;46.65;19.52;;;;;;;-4.06;65.31;98906.56;4942186;28;20042;-92
2022/02/11 14:26:48;;;;;;;50.95;19.65;;;;;;;-4.04;65.38;98907.38;4942181;28;20050;-90
2022/02/11 14:29:15;;;;;;;46.05;19.30;;;;;;;-4.03;65.67;98903.84;4974813;28;20543;-92
2022/02/11 14:31:42;;;;;;;44.20;20.13;;;;;;;-4.00;65.54;98909.84;4942357;28;20043;-85
2022/02/11 14:34:09;;;;;;;54.15;19.48;;;;;;;-4.01;65.21;98912.53;4989042;28;20066;-87
2022/02/11 14:36:37;;;;;;;47.40;19.88;;;;;;;-3.96;65.29;98926.28;4941332;28;20039;-87
2022/02/11 14:39:07;;;;;;;45.38;19.08;;;;;;;-3.98;65.40;98928.09;4973369;28;20042;-83
2022/02/11 14:41:48;;;;;;;44.80;18.60;;;;;;;-3.88;65.59;98932.16;4978032;28;20081;-87
2022/02/11 14:44:17;;;;;;;36.15;15.50;;;;;;;-3.95;65.60;98925.38;4949202;28;20359;-89
2022/02/11 14:46:44;;;;;;;40.92;15.43;;;;;;;-3.95;65.47;98922.78;4951286;28;20038;-88
2022/02/11 14:49:12;;;;;;;31.63;14.32;;;;;;;-3.97;66.06;98914.16;4933844;28;20106;-90
2022/02/11 14:51:38;;;;;;;39.58;15.10;;;;;;;-3.96;65.89;98923.69;4973783;28;20100;-89
2022/02/11 14:54:11;;;;;;;37.60;15.25;;;;;;;-4.00;66.07;98909.00;4981056;28;20051;-91
2022/02/11 14:56:38;;;;;;;40.67;15.43;;;;;;;-3.98;65.91;98907.22;4942408;29;20145;-93
2022/02/11 14:59:04;;;;;;;35.63;15.88;;;;;;;-4.04;65.83;98896.94;4912684;29;20043;-92
2022/02/11 15:01:30;;;;;;;36.80;16.52;;;;;;;-4.01;65.88;98899.47;4957523;28;20110;-93
2022/02/11 15:03:58;;;;;;;28.95;14.23;;;;;;;-3.99;65.84;98902.88;4912742;28;20078;-88
2022/02/11 15:06:24;;;;;;;36.60;15.43;;;;;;;-4.00;66.28;98898.56;4975789;28;20062;-91
2022/02/11 15:08:53;;;;;;;41.03;16.77;;;;;;;-3.99;66.41;98905.47;4976624;23;20062;-89
2022/02/11 15:11:18;;;;;;;32.25;16.70;;;;;;;-4.00;66.09;98898.56;4954856;28;20039;-92
2022/02/11 15:13:45;;;;;;;40.50;18.05;;;;;;;-3.99;66.27;98905.47;4976243;28;20079;-85
2022/02/11 15:16:11;;;;;;;36.42;17.88;;;;;;;-3.89;66.49;98901.72;4933169;28;20038;-89
2022/02/11 15:18:39;;;;;;;37.85;17.95;;;;;;;-3.93;66.20;98900.09;4972586;28;20055;-84
2022/02/11 15:21:41;;;;;;;45.25;17.88;;;;;;;-3.88;65.95;98908.66;4956159;28;20054;-90